Flight Track Log - Related Links

Times and Time Zones

All times are in EST time to prevent confusion due to time zone crossing. See the EJA922 flight status page for this flight to view local times or setup timezone preferences in your user account.

Time Position Orientation Groundspeed Altitude Reporting Facility
EST Latitude Longitude Course Direction KTS MPH feet Rate Location/Type
Thu 03:15:22 PM 36.0619 -115.1728 206° Southwest 180 207 3,300  Level Los Angeles Center
Thu 03:15:53 PM 36.0333 -115.1903 206° Southwest 228 262 5,200 2,581 Climbing Los Angeles Center
Thu 03:16:48 PM 35.9942 -115.2483 230° Southwest 230 265 7,000 1,459 Climbing Los Angeles Center
Thu 03:17:07 PM 35.9864 -115.2667 242° Southwest 230 265 7,000 98 Level Los Angeles Center
Thu 03:17:49 PM 35.9406 -115.2897 202° Southwest 257 296 7,100 581 Climbing Los Angeles Center
Thu 03:18:09 PM 35.9214 -115.2819 162° South 261 300 7,600 3,738 Climbing Los Angeles Center
Thu 03:18:50 PM 35.8722 -115.2539 155° Southeast 273 314 10,900 3,968 Climbing Los Angeles Center
Thu 03:19:11 PM 35.8567 -115.2231 122° Southeast 288 331 11,700 2,700 Climbing Los Angeles Center
Thu 03:19:50 PM 35.8394 -115.1531 107° East 342 394 13,600 3,000 Climbing Los Angeles Center
Thu 03:20:13 PM 35.8311 -115.1108 104° East 343 395 14,800 2,824 Climbing Los Angeles Center
Thu 03:21:15 PM 35.8311 -114.9783 90° East 369 425 17,600 2,448 Climbing Los Angeles Center
Thu 03:22:18 PM 35.8439 -114.8403 83° East 379 436 19,900 2,112 Climbing Los Angeles Center
Thu 03:23:20 PM 35.8608 -114.7039 81° East 390 449 22,000 1,887 Climbing Los Angeles Center
Thu 03:24:22 PM 35.8731 -114.5536 84° East 413 475 23,800 1,694 Climbing Los Angeles Center
Thu 03:25:24 PM 35.8858 -114.3950 84° East 436 502 25,500 1,694 Climbing Los Angeles Center
Thu 03:26:26 PM 35.8994 -114.2314 84° East 456 525 27,300 1,306 Climbing Los Angeles Center
Thu 03:27:28 PM 35.9097 -114.0508 86° East 488 562 28,200 871 Climbing Los Angeles Center
Thu 03:28:30 PM 35.9178 -113.8772 87° East 509 586 29,100 1,248 Climbing Los Angeles Center
Thu 03:29:33 PM 35.8875 -113.6739 100° East 506 582 30,800 1,344 Climbing Los Angeles Center
Thu 03:30:35 PM 35.8592 -113.5008 101° East 510 587 31,900 1,645 Climbing Los Angeles Center
Thu 03:31:37 PM 35.8311 -113.3231 101° East 518 596 34,200 1,935 Climbing Los Angeles Center
Thu 03:32:39 PM 35.8022 -113.1472 101° East 522 601 35,900 1,839 Climbing Los Angeles Center
Thu 03:33:41 PM 35.7739 -112.9692 101° East 525 604 38,000 1,790 Climbing Los Angeles Center
Thu 03:34:43 PM 35.7447 -112.7947 102° East 521 600 39,600 1,210 Climbing Los Angeles Center
Thu 03:35:45 PM 35.7094 -112.5833 102° East 521 600 40,500 677 Climbing Los Angeles Center
Thu 03:36:47 PM 35.6797 -112.4036 101° East 529 609 41,000 240 Climbing Los Angeles Center
Thu 03:37:50 PM 35.6469 -112.2169 102° East 551 634 41,000  Level Los Angeles Center
Thu 03:38:46 PM 35.6200 -112.0656 102° East 557 641 41,000  Level Albuquerque Center
Thu 03:39:49 PM 35.5872 -111.8342 100° East 570 656 41,000  Level Albuquerque Center
Thu 03:40:49 PM 35.5833 -111.6369 91° East 579 666 41,000  Level Albuquerque Center
Thu 03:41:51 PM 35.5775 -111.4383 92° East 582 670 41,000  Level Albuquerque Center
Thu 03:42:55 PM 35.5711 -111.2236 92° East 584 672 41,000  Level Albuquerque Center
Thu 03:43:55 PM 35.5653 -111.0342 92° East 582 670 41,000  Level Albuquerque Center
Thu 03:44:58 PM 35.5572 -110.8106 92° East 585 673 41,000  Level Albuquerque Center
Thu 03:45:59 PM 35.5514 -110.6211 92° East 583 671 41,000  Level Albuquerque Center
Thu 03:47:00 PM 35.5425 -110.3972 93° East 586 674 41,000  Level Albuquerque Center
Thu 03:48:04 PM 35.5358 -110.2072 92° East 585 673 41,000  Level Albuquerque Center
Thu 03:49:05 PM 35.5269 -109.9847 93° East 586 674 41,000  Level Albuquerque Center
Thu 03:50:09 PM 35.5192 -109.7942 93° East 586 674 41,000  Level Albuquerque Center
Thu 03:51:09 PM 35.5097 -109.5733 93° East 583 671 41,000  Level Albuquerque Center
Thu 03:52:12 PM 35.5008 -109.3806 93° East 589 678 41,000  Level Albuquerque Center
Thu 03:53:13 PM 35.4906 -109.1594 93° East 587 676 41,000  Level Albuquerque Center
Thu 03:54:16 PM 35.4806 -108.9711 94° East 584 672 41,000  Level Albuquerque Center
Thu 03:55:18 PM 35.4831 -108.7522 89° East 581 669 41,000  Level Albuquerque Center
Thu 03:56:21 PM 35.4958 -108.5628 85° East 585 673 41,000  Level Albuquerque Center
Thu 03:57:21 PM 35.5094 -108.3394 86° East 589 678 41,000  Level Albuquerque Center
Thu 03:58:25 PM 35.5203 -108.1489 86° East 589 678 41,000  Level Albuquerque Center
Thu 03:59:25 PM 35.5328 -107.9275 86° East 585 673 41,000  Level Albuquerque Center
Thu 04:00:29 PM 35.5431 -107.7375 86° East 585 673 41,000  Level Albuquerque Center
Thu 04:01:29 PM 35.5547 -107.5156 86° East 585 673 41,000  Level Albuquerque Center
Thu 04:02:32 PM 35.5653 -107.3236 86° East 586 674 41,000  Level Albuquerque Center
Thu 04:03:33 PM 35.5750 -107.1103 87° East 590 679 41,000  Level Albuquerque Center
Thu 04:04:36 PM 35.5858 -106.8933 86° East 592 681 41,000  Level Albuquerque Center
Thu 04:05:37 PM 35.5953 -106.6939 87° East 586 674 41,000  Level Albuquerque Center
Thu 04:06:40 PM 35.6050 -106.4756 87° East 592 681 41,000  Level Albuquerque Center
Thu 04:07:41 PM 35.6131 -106.2753 87° East 590 679 41,000  Level Albuquerque Center
Thu 04:08:44 PM 35.6239 -106.0942 86° East 583 671 41,000  Level Albuquerque Center
Thu 04:09:45 PM 35.6331 -105.8933 87° East 587 676 41,000  Level Albuquerque Center
Thu 04:10:48 PM 35.6383 -105.6928 88° East 586 674 41,000  Level Albuquerque Center
Thu 04:11:49 PM 35.6475 -105.4750 87° East 587 676 41,000  Level Albuquerque Center
Thu 04:12:52 PM 35.6547 -105.2397 88° East 586 674 41,000  Level Albuquerque Center
Thu 04:13:53 PM 35.6497 -105.0392 92° East 582 670 41,000  Level Albuquerque Center
Thu 04:14:56 PM 35.6264 -104.8417 98° East 577 664 41,000  Level Albuquerque Center
Thu 04:15:56 PM 35.6042 -104.6458 98° East 574 661 41,000  Level Albuquerque Center
Thu 04:17:00 PM 35.5811 -104.4500 98° East 572 658 41,000  Level Albuquerque Center
Thu 04:18:01 PM 35.5594 -104.2533 98° East 572 658 41,000  Level Albuquerque Center
Thu 04:19:04 PM 35.5369 -104.0572 98° East 569 655 41,000  Level Albuquerque Center
Thu 04:20:06 PM 35.5139 -103.8600 98° East 572 658 41,000  Level Albuquerque Center
Thu 04:21:06 PM 35.4894 -103.6639 99° East 573 659 41,000  Level Albuquerque Center
Thu 04:22:10 PM 35.4661 -103.4689 98° East 572 658 41,000  Level Albuquerque Center
Thu 04:23:10 PM 35.4419 -103.2747 99° East 571 657 41,000  Level Albuquerque Center
Thu 04:24:14 PM 35.4136 -103.0475 99° East 573 659 41,000  Level Albuquerque Center
Thu 04:25:15 PM 35.3886 -102.8506 99° East 577 664 41,000  Level Albuquerque Center
Thu 04:26:16 PM 35.3625 -102.6547 99° East 577 664 41,000  Level Albuquerque Center
Thu 04:27:21 PM 35.3369 -102.4594 99° East 575 662 41,000  Level Albuquerque Center
Thu 04:28:22 PM 35.3228 -102.2636 95° East 578 665 41,000  Level Albuquerque Center
Thu 04:29:23 PM 35.3156 -102.0686 93° East 575 662 41,000  Level Albuquerque Center
Thu 04:30:26 PM 35.3072 -101.8683 93° East 576 663 41,000  Level Albuquerque Center
Thu 04:31:29 PM 35.2967 -101.6450 93° East 574 661 41,000  Level Albuquerque Center
Thu 04:32:29 PM 35.2869 -101.4497 93° East 573 659 41,000  Level Albuquerque Center
Thu 04:33:30 PM 35.2781 -101.2711 93° East 577 664 41,000  Level Albuquerque Center
Thu 04:34:34 PM 35.2650 -101.0378 94° East 575 662 41,000  Level Albuquerque Center
Thu 04:35:34 PM 35.2547 -100.8442 94° East 573 659 41,000  Level Albuquerque Center
Thu 04:36:38 PM 35.2453 -100.6678 94° East 574 661 41,000  Level Albuquerque Center
Thu 04:37:39 PM 35.2339 -100.4722 94° East 576 663 41,000  Level Albuquerque Center
Thu 04:38:39 PM 35.2200 -100.2383 94° East 575 662 41,000  Level Albuquerque Center
Thu 04:39:43 PM 35.2078 -100.0439 94° East 575 662 41,000  Level Albuquerque Center
Thu 04:40:44 PM 35.1961 -99.8500 94° East 574 661 41,000  Level Albuquerque Center
Thu 04:41:47 PM 35.1839 -99.6556 94° East 574 661 41,000  Level Albuquerque Center
Thu 04:42:48 PM 35.1711 -99.4617 95° East 574 661 41,000  Level Albuquerque Center
Thu 04:43:39 PM 35.1578 -99.2681 95° East 575 662 41,000  Level Fort Worth Center
Thu 04:44:41 PM 35.1444 -99.0733 95° East 576 663 41,000  Level Fort Worth Center
Thu 04:45:43 PM 35.1308 -98.8811 95° East 571 657 41,000  Level Fort Worth Center
Thu 04:46:45 PM 35.1172 -98.6883 95° East 570 656 41,000  Level Fort Worth Center
Thu 04:47:47 PM 35.1006 -98.4717 95° East 571 657 41,000  Level Fort Worth Center
Thu 04:48:49 PM 35.0858 -98.2786 95° East 572 658 41,000  Level Fort Worth Center
Thu 04:49:52 PM 35.0714 -98.0858 95° East 577 664 41,000  Level Fort Worth Center
Thu 04:50:54 PM 35.0575 -97.8925 95° East 575 662 41,000  Level Fort Worth Center
Thu 04:51:56 PM 35.0408 -97.7011 96° East 576 663 41,000  Level Fort Worth Center
Thu 04:52:58 PM 35.0217 -97.4722 96° East 575 662 41,000  Level Fort Worth Center
Thu 04:54:00 PM 34.9950 -97.2839 100° East 571 657 41,000  Level Fort Worth Center
Thu 04:55:02 PM 34.9661 -97.0969 101° East 569 655 41,000  Level Fort Worth Center
Thu 04:56:04 PM 34.9397 -96.9089 100° East 569 655 41,000  Level Fort Worth Center
Thu 04:57:06 PM 34.9086 -96.6831 99° East 567 652 41,000  Level Fort Worth Center
Thu 04:59:10 PM 34.8606 -96.3050 99° East 569 655 41,000  Level Fort Worth Center
Thu 05:00:13 PM 34.8575 -96.1144 91° East 567 652 41,000  Level Fort Worth Center
Thu 05:01:15 PM 34.8697 -95.9194 86° East 572 658 41,000  Level Fort Worth Center
Thu 05:02:17 PM 34.8981 -95.7253 80° East 578 665 41,000  Level Fort Worth Center
Thu 05:03:19 PM 34.9400 -95.4922 78° East 587 676 41,000  Level Fort Worth Center
Thu 05:04:21 PM 34.9453 -95.2986 88° East 580 667 41,000  Level Fort Worth Center
Thu 05:05:23 PM 34.9233 -95.1094 98° East 570 656 41,000  Level Fort Worth Center
Thu 05:06:25 PM 34.9003 -94.9200 98° East 567 652 41,000  Level Fort Worth Center
Thu 05:07:27 PM 34.8767 -94.7292 99° East 569 655 41,000  Level Fort Worth Center
Thu 05:08:29 PM 34.8528 -94.5144 98° East 573 659 41,000  Level Fort Worth Center
Thu 05:09:32 PM 34.8294 -94.3244 98° East 569 655 41,000  Level Fort Worth Center
Thu 05:10:34 PM 34.8061 -94.1336 98° East 570 656 41,000  Level Fort Worth Center
Thu 05:11:36 PM 34.7808 -93.9425 99° East 572 658 41,000  Level Fort Worth Center
Thu 05:12:38 PM 34.7333 -93.7189 104° East 567 652 41,000  Level Fort Worth Center
Thu 05:13:40 PM 34.6933 -93.5353 105° East 563 648 41,000  Level Fort Worth Center
Thu 05:14:42 PM 34.6531 -93.3522 105° East 561 646 41,000  Level Fort Worth Center
Thu 05:15:44 PM 34.6097 -93.1506 105° East 564 649 41,000  Level Fort Worth Center
Thu 05:16:46 PM 34.5681 -92.9669 105° East 568 654 41,000  Level Fort Worth Center
Thu 05:17:48 PM 34.5286 -92.7847 105° East 566 651 41,000  Level Fort Worth Center
Thu 05:18:51 PM 34.4869 -92.6033 106° East 564 649 41,000  Level Fort Worth Center
Thu 05:20:04 PM 34.4361 -92.3844 106° East 567 652 41,000 44 Level Memphis Center
Thu 05:21:06 PM 34.3958 -92.2067 105° East 557 641 41,100 823 Climbing Memphis Center
Thu 05:22:08 PM 34.3492 -91.9969 105° East 545 627 42,700 919 Climbing Memphis Center
Thu 05:23:10 PM 34.3086 -91.8231 106° East 540 621 43,000 145 Climbing Memphis Center
Thu 05:24:12 PM 34.2644 -91.6392 106° East 545 627 43,000  Level Memphis Center
Thu 05:25:14 PM 34.2236 -91.4622 106° East 543 625 43,000  Level Memphis Center
Thu 05:26:16 PM 34.1803 -91.2853 106° East 542 624 43,000  Level Memphis Center
Thu 05:27:18 PM 34.1394 -91.1089 106° East 545 627 43,000  Level Memphis Center
Thu 05:28:20 PM 34.0964 -90.9319 106° East 547 629 43,000  Level Memphis Center
Thu 05:29:22 PM 34.0464 -90.7244 106° East 549 632 43,000  Level Memphis Center
Thu 05:30:24 PM 34.0033 -90.5472 106° East 548 631 43,000  Level Memphis Center
Thu 05:31:26 PM 33.9600 -90.3703 106° East 548 631 43,000  Level Memphis Center
Thu 05:32:28 PM 33.9156 -90.1956 107° East 547 629 43,000  Level Memphis Center
Thu 05:33:30 PM 33.8722 -90.0186 106° East 547 629 43,000  Level Memphis Center
Thu 05:34:32 PM 33.8286 -89.8422 107° East 547 629 43,000  Level Memphis Center
Thu 05:35:34 PM 33.7800 -89.6539 107° East 550 633 43,000 -384 Level Memphis Center
Thu 05:36:37 PM 33.6947 -89.5117 126° Southeast 533 613 42,200 -1,344 Descending Memphis Center
Thu 05:37:39 PM 33.5661 -89.4306 152° Southeast 523 602 40,200 -2,129 Descending Memphis Center
Thu 05:38:41 PM 33.4286 -89.3186 146° Southeast 512 589 37,800 -2,129 Descending Memphis Center
Thu 05:39:43 PM 33.3867 -89.1572 107° East 523 602 35,800 -1,597 Descending Memphis Center
Thu 05:40:45 PM 33.3925 -88.9794 88° East 535 616 34,500 -1,597 Descending Memphis Center
Thu 05:41:47 PM 33.4278 -88.8047 76° East 541 623 32,500 -1,935 Descending Memphis Center
Thu 05:42:49 PM 33.4639 -88.6233 77° East 556 640 30,500 -2,143 Descending Memphis Center
Thu 05:43:11 PM 33.4797 -88.5328 78° East 560 644 29,500 -2,323 Descending Memphis Center
Thu 05:43:51 PM 33.5019 -88.4061 78° East 558 642 28,100 -2,060 Descending Memphis Center
Thu 05:44:18 PM 33.5069 -88.3211 86° East 560 644 27,200 -1,935 Descending Memphis Center
Thu 05:44:53 PM 33.5211 -88.2258 80° East 551 634 26,100 -1,967 Descending Memphis Center
Thu 05:45:19 PM 33.5297 -88.1489 82° East 537 618 25,200 -1,742 Descending Memphis Center
Thu 05:45:55 PM 33.5389 -88.0697 82° East 537 618 24,300 -2,020 Descending Memphis Center
Thu 05:46:57 PM 33.5611 -87.8728 82° East 510 587 21,900 -2,129 Descending Memphis Center
Thu 05:47:59 PM 33.5797 -87.7119 82° East 497 572 19,900 -1,935 Descending Memphis Center
Thu 05:49:01 PM 33.5981 -87.5578 82° East 480 552 17,900 -1,839 Descending Memphis Center
Thu 05:50:03 PM 33.6153 -87.4081 82° East 465 535 16,100 -1,839 Descending Memphis Center
Thu 05:51:05 PM 33.6319 -87.2589 82° East 457 526 14,100 -1,843 Descending Memphis Center
Thu 05:52:23 PM 33.6528 -87.0608 83° East 429 494 11,800 -1,765 Descending Atlanta Center
Thu 05:52:30 PM 33.6531 -87.0508 88° East 378 435 11,600 -1,300 Descending Atlanta Center
Thu 05:53:23 PM 33.6658 -86.9492 81° East 382 440 10,500 -1,574 Descending Atlanta Center
Thu 05:53:31 PM 33.6619 -86.9389 114° Southeast 303 349 10,000 -1,900 Descending Atlanta Center
Thu 05:54:23 PM 33.6322 -86.8731 118° Southeast 266 306 8,600 -1,700 Descending Atlanta Center
Thu 05:54:31 PM 33.6175 -86.8850 214° Southwest 262 302 8,300 -1,400 Descending Atlanta Center
Thu 05:55:23 PM 33.5767 -86.9286 222° Southwest 136 157 7,200 -1,279 Descending Atlanta Center
Thu 05:55:32 PM 33.5681 -86.9458 239° Southwest 245 282 7,000 -400 Descending Atlanta Center
Thu 05:56:23 PM 33.5397 -86.9947 235° Southwest 167 192 6,800 -218 Descending Atlanta Center
Thu 05:56:27 PM 33.5353 -87.0019 234° Southwest 222 255 6,800 -1,000 Level Atlanta Center
Thu 05:57:23 PM 33.5069 -87.0533 237° Southwest 203 234 5,800 -1,082 Descending Atlanta Center
Thu 05:57:28 PM 33.5025 -87.0606 234° Southwest 211 243 5,700 -646 Descending Atlanta Center
Thu 05:58:28 PM 33.4567 -87.0639 183° South 184 212 5,100 -730 Descending Atlanta Center
Thu 05:59:23 PM 33.4431 -87.0161 109° East 191 220 4,300 -885 Descending Atlanta Center
Thu 06:00:30 PM 33.4531 -86.9444 80° East 203 234 3,300 -803 Descending Atlanta Center
Thu 06:01:30 PM 33.4878 -86.8908 52° Northeast 200 230 2,600 -595 Descending Atlanta Center
Thu 06:02:31 PM 33.5119 -86.8442 58° Northeast 154 177 2,100 -590 Descending Atlanta Center
Thu 06:03:32 PM 33.5336 -86.8075 55° Northeast 126 145 1,400 -689 Descending Atlanta Center

Login

Don't have an account? Register now (free) for customized features, flight alerts, and more!